Time;durP1;ratioP1;P1;durP2;ratioP2;P2;SDS_P1;SDS_P2;PMS_P1;PMS_P2;Temp;Humidity;BMP_temperature;BMP_pressure;BME280_temperature;BME280_humidity;BME280_pressure;Samples;Min_cycle;Max_cycle;Signal;HPM_P1;HPM_P2
2021/06/26 00:01:04;;;;;;;10.73;8.47;;;;;;;12.60;67.60;99802.10;1699863;82;20971;-66
2021/06/26 00:03:31;;;;;;;10.43;7.80;;;;;;;12.56;67.66;99799.28;1696071;81;21482;-66
2021/06/26 00:05:58;;;;;;;9.35;7.45;;;;;;;12.53;67.69;99799.45;1696917;81;20949;-67
2021/06/26 00:08:25;;;;;;;;;;;;;;;12.48;67.73;99804.92;1757917;79;20896;-66
2021/06/26 00:10:53;;;;;;;10.68;8.08;;;;;;;12.46;68.06;99798.08;1746995;79;21104;-67
2021/06/26 00:13:20;;;;;;;11.57;7.95;;;;;;;12.43;68.01;99802.17;1749798;79;20920;-66
2021/06/26 00:15:47;;;;;;;;;;;;;;;12.38;68.00;99806.80;1738855;79;21510;-67
2021/06/26 00:18:15;;;;;;;12.28;8.78;;;;;;;12.36;68.31;99811.30;1748440;79;20103;-66
2021/06/26 00:20:42;;;;;;;8.98;7.20;;;;;;;12.33;68.15;99804.92;1754353;78;20947;-66
2021/06/26 00:23:10;;;;;;;12.47;8.48;;;;;;;12.27;68.19;99806.09;1740640;79;21156;-66
2021/06/26 00:25:37;;;;;;;9.68;7.80;;;;;;;12.17;68.22;99805.71;1739930;79;20951;-66
2021/06/26 00:28:04;;;;;;;8.93;8.00;;;;;;;12.12;68.44;99802.48;1751585;79;21036;-67
2021/06/26 00:30:31;;;;;;;11.48;9.05;;;;;;;12.07;68.62;99802.74;1761523;79;20951;-66
2021/06/26 00:32:57;;;;;;;14.00;8.67;;;;;;;12.05;68.71;99799.35;1754941;79;20868;-66
2021/06/26 00:35:24;;;;;;;11.48;8.83;;;;;;;12.03;68.78;99801.20;1693768;82;21109;-66
2021/06/26 00:37:51;;;;;;;11.70;8.05;;;;;;;12.00;68.81;99804.45;1735492;80;21742;-66
2021/06/26 00:40:17;;;;;;;10.47;8.13;;;;;;;11.98;68.91;99802.36;1712290;82;20951;-67
2021/06/26 00:42:46;;;;;;;9.83;7.10;;;;;;;11.94;69.01;99811.30;1708193;82;21018;-67
2021/06/26 00:45:15;;;;;;;11.68;7.72;;;;;;;11.88;69.00;99801.16;1753358;79;20962;-66
2021/06/26 00:47:42;;;;;;;12.30;9.23;;;;;;;11.82;69.02;99803.13;1746018;79;21958;-67
2021/06/26 00:50:26;;;;;;;11.80;7.70;;;;;;;11.80;69.14;99804.97;1739392;79;20954;-66
2021/06/26 00:52:52;;;;;;;10.75;7.03;;;;;;;11.73;69.09;99819.27;1755992;79;20923;-66
2021/06/26 00:55:20;;;;;;;11.70;7.83;;;;;;;11.58;69.14;99822.67;1754393;79;20929;-66
2021/06/26 00:57:56;;;;;;;11.95;7.58;;;;;;;11.44;69.22;99819.42;1748465;79;20889;-67
2021/06/26 01:00:22;;;;;;;9.58;8.35;;;;;;;11.36;69.37;99822.41;1742809;79;21143;-66
2021/06/26 01:02:49;;;;;;;9.43;8.18;;;;;;;11.33;69.56;99825.64;1754676;79;20991;-66
2021/06/26 01:05:16;;;;;;;14.07;8.53;;;;;;;11.35;69.69;99831.19;1754638;79;20947;-67
2021/06/26 01:07:43;;;;;;;13.72;7.62;;;;;;;11.34;69.75;99826.89;1745892;79;20907;-67
2021/06/26 01:10:10;;;;;;;;;;;;;;;11.38;69.83;99832.34;1761301;79;20866;-66
2021/06/26 01:12:37;;;;;;;12.93;8.60;;;;;;;11.39;70.00;99823.56;1756655;79;21072;-67
2021/06/26 01:15:09;;;;;;;11.30;8.20;;;;;;;11.38;69.94;99824.50;1732982;80;20902;-66
2021/06/26 01:17:36;;;;;;;11.15;7.80;;;;;;;11.38;70.05;99837.56;1695904;82;21053;-67
2021/06/26 01:20:07;;;;;;;10.60;8.43;;;;;;;11.36;70.11;99830.25;1688918;82;20899;-66
2021/06/26 01:22:41;;;;;;;14.03;9.33;;;;;;;11.33;70.21;99831.71;1726531;80;21009;-66
2021/06/26 01:25:04;;;;;;;12.70;8.78;;;;;;;11.36;70.49;99835.95;1729533;80;21350;-66
2021/06/26 01:27:30;;;;;;;11.78;9.13;;;;;;;11.35;70.43;99835.11;1721104;80;20974;-66
2021/06/26 01:29:57;;;;;;;15.30;9.60;;;;;;;11.34;70.45;99830.81;1722802;80;20870;-67
2021/06/26 01:32:24;;;;;;;13.13;8.80;;;;;;;11.32;70.53;99830.03;1727470;81;21545;-67
2021/06/26 01:34:50;;;;;;;8.95;7.50;;;;;;;11.27;70.47;99832.02;1728479;80;20950;-66
2021/06/26 01:37:17;;;;;;;8.50;7.67;;;;;;;11.17;70.42;99828.14;1729076;80;21084;-66
2021/06/26 01:39:43;;;;;;;8.50;7.20;;;;;;;11.08;70.48;99825.97;1731900;80;20872;-67
2021/06/26 01:42:11;;;;;;;11.63;8.18;;;;;;;10.96;70.53;99829.55;1718464;81;21501;-66
2021/06/26 01:44:38;;;;;;;11.40;8.93;;;;;;;10.87;70.80;99831.30;1733461;80;20860;-66
2021/06/26 01:47:08;;;;;;;12.18;7.65;;;;;;;10.84;71.01;99839.28;1720177;80;21078;-66
2021/06/26 01:49:39;;;;;;;11.38;8.15;;;;;;;10.83;70.96;99837.57;1722259;81;21303;-66
2021/06/26 01:52:09;;;;;;;9.38;8.33;;;;;;;10.79;71.00;99829.97;1680816;83;20957;-66
2021/06/26 01:54:38;;;;;;;12.20;8.65;;;;;;;10.79;71.17;99823.44;1717814;80;20930;-67
2021/06/26 01:57:08;;;;;;;11.68;8.13;;;;;;;10.81;71.12;99831.59;1750579;79;20886;-66
2021/06/26 01:59:36;;;;;;;15.28;8.98;;;;;;;10.80;71.24;99828.58;1745523;79;21597;-66
2021/06/26 02:02:03;;;;;;;18.23;8.15;;;;;;;10.80;71.30;99831.19;1746239;79;21208;-67
2021/06/26 02:04:30;;;;;;;;;;;;;;;10.79;71.26;99830.81;1745075;79;20924;-66
2021/06/26 02:06:56;;;;;;;11.20;8.08;;;;;;;10.81;71.61;99828.11;1753219;79;20130;-66
2021/06/26 02:09:23;;;;;;;11.65;9.08;;;;;;;10.80;71.58;99830.34;1752124;79;21510;-66
2021/06/26 02:11:50;;;;;;;11.20;8.20;;;;;;;10.84;71.67;99830.14;1748666;79;20933;-66
2021/06/26 02:14:17;;;;;;;12.03;8.75;;;;;;;10.87;71.69;99839.61;1764681;79;22112;-66
2021/06/26 02:16:43;;;;;;;9.23;8.33;;;;;;;10.86;71.73;99836.59;1740886;79;20847;-66
2021/06/26 02:19:10;;;;;;;11.93;8.65;;;;;;;10.83;71.80;99827.13;1743044;79;20934;-66
2021/06/26 02:21:37;;;;;;;12.70;8.48;;;;;;;10.86;71.88;99824.36;1756040;79;20848;-66
2021/06/26 02:24:05;;;;;;;10.25;8.75;;;;;;;10.92;72.01;99826.72;1737319;79;20985;-66
2021/06/26 02:26:32;;;;;;;13.80;11.05;;;;;;;10.97;72.00;99832.55;1761336;79;21117;-66
2021/06/26 02:28:58;;;;;;;12.50;8.53;;;;;;;11.02;72.06;99831.50;1679709;82;20955;-66
2021/06/26 02:31:25;;;;;;;11.08;8.30;;;;;;;11.04;72.13;99830.51;1726295;80;21412;-66
2021/06/26 02:33:51;;;;;;;9.50;7.37;;;;;;;11.08;72.21;99831.20;1692872;81;21014;-66
2021/06/26 02:36:18;;;;;;;8.50;7.60;;;;;;;11.13;72.26;99833.14;1696804;81;20939;-67
2021/06/26 02:38:45;;;;;;;9.58;7.37;;;;;;;11.21;72.39;99831.01;1754201;79;21035;-66
2021/06/26 02:41:12;;;;;;;11.63;7.37;;;;;;;11.30;72.41;99834.48;1747585;79;20898;-66
2021/06/26 02:43:38;;;;;;;9.03;7.10;;;;;;;11.38;72.38;99834.95;1745952;79;20919;-66
2021/06/26 02:46:05;;;;;;;11.33;8.30;;;;;;;11.53;72.48;99839.05;1745816;79;21480;-66
2021/06/26 02:48:32;;;;;;;10.23;8.13;;;;;;;11.73;72.52;99849.82;1744961;79;20975;-66
2021/06/26 02:50:58;;;;;;;11.05;8.35;;;;;;;11.94;72.52;99843.55;1750173;79;21906;-66
2021/06/26 02:53:25;;;;;;;8.60;7.70;;;;;;;12.22;72.58;99836.42;1753659;79;20927;-67
2021/06/26 02:55:55;;;;;;;9.83;8.53;;;;;;;12.62;72.71;99831.69;1761241;79;20954;-67
2021/06/26 02:58:20;;;;;;;9.90;8.38;;;;;;;13.12;72.77;99829.38;1750315;79;21512;-66
2021/06/26 03:00:47;;;;;;;10.23;8.00;;;;;;;13.68;72.75;99834.13;1749994;79;20987;-66
2021/06/26 03:03:13;;;;;;;8.75;7.40;;;;;;;14.15;72.49;99825.22;1745377;79;21116;-67
2021/06/26 03:05:40;;;;;;;13.27;8.87;;;;;;;14.36;71.81;99818.64;1742866;78;20919;-67
2021/06/26 03:08:07;;;;;;;9.87;7.80;;;;;;;14.20;71.56;99820.52;1756641;79;20900;-67
2021/06/26 03:10:33;;;;;;;10.08;8.28;;;;;;;14.00;71.62;99817.33;1751822;79;20968;-67
2021/06/26 03:13:00;;;;;;;9.07;8.07;;;;;;;13.94;71.94;99817.67;1761798;79;20911;-67
2021/06/26 03:15:26;;;;;;;11.07;7.80;;;;;;;13.87;71.90;99815.05;1733463;80;22119;-67
2021/06/26 03:17:53;;;;;;;12.97;8.07;;;;;;;13.77;71.91;99819.15;1734866;79;21042;-66
2021/06/26 03:20:20;;;;;;;9.00;7.50;;;;;;;13.63;71.88;99824.73;1746645;79;20915;-66
2021/06/26 03:22:46;;;;;;;10.05;7.90;;;;;;;13.50;72.02;99830.33;1750997;79;20923;-66
2021/06/26 03:25:14;;;;;;;12.33;7.33;;;;;;;13.44;72.14;99828.03;1723871;80;20939;-66
2021/06/26 03:27:41;;;;;;;10.60;7.33;;;;;;;13.39;72.06;99831.41;1734726;79;21081;-66
2021/06/26 03:30:09;;;;;;;13.68;7.65;;;;;;;13.27;72.04;99821.60;1726145;79;21018;-66
2021/06/26 03:32:36;;;;;;;10.72;7.53;;;;;;;13.25;72.02;99836.53;1709396;81;20867;-67
2021/06/26 03:35:04;;;;;;;8.40;7.55;;;;;;;13.18;72.18;99838.20;1765837;79;21434;-67
2021/06/26 03:37:30;;;;;;;9.00;7.67;;;;;;;13.13;72.32;99837.61;1756124;79;20903;-67
2021/06/26 03:39:57;;;;;;;16.37;9.23;;;;;;;13.07;72.46;99825.31;1754623;79;21984;-66
2021/06/26 03:42:24;;;;;;;14.43;9.25;;;;;;;13.16;72.70;99844.02;1752110;79;20923;-67
2021/06/26 03:44:50;;;;;;;10.60;8.50;;;;;;;13.33;72.81;99849.66;1755797;78;20876;-67
2021/06/26 03:47:17;;;;;;;12.05;8.45;;;;;;;13.48;72.83;99841.37;1745441;78;20914;-67
2021/06/26 03:49:44;;;;;;;13.60;9.43;;;;;;;13.64;72.93;99847.43;1743366;79;20927;-67
2021/06/26 03:52:10;;;;;;;15.07;8.77;;;;;;;13.82;72.93;99844.66;1744839;79;21091;-67
2021/06/26 03:54:37;;;;;;;10.70;8.40;;;;;;;13.92;72.85;99856.32;1747967;79;20936;-66
2021/06/26 03:57:04;;;;;;;12.53;8.50;;;;;;;13.90;72.60;99857.34;1756999;79;21612;-67
2021/06/26 03:59:30;;;;;;;;;;;;;;;13.79;72.52;99865.84;1754822;79;21017;-67
2021/06/26 04:01:57;;;;;;;9.57;7.90;;;;;;;13.72;72.94;99864.48;1754879;79;20145;-67
2021/06/26 04:04:24;;;;;;;10.58;7.97;;;;;;;13.77;72.94;99866.39;1749493;79;21161;-67
2021/06/26 04:06:51;;;;;;;8.48;7.58;;;;;;;13.84;73.04;99861.17;1762731;79;20997;-66
2021/06/26 04:09:17;;;;;;;10.03;8.00;;;;;;;14.00;73.03;99858.47;1742104;79;20920;-67
2021/06/26 04:11:44;;;;;;;10.47;8.43;;;;;;;14.09;72.93;99861.41;1748180;79;20896;-66
2021/06/26 04:14:11;;;;;;;11.10;9.10;;;;;;;14.24;73.05;99864.89;1749677;79;20993;-67
2021/06/26 04:16:37;;;;;;;13.17;9.00;;;;;;;15.35;74.50;99853.62;1751390;79;21093;-65
2021/06/26 04:19:04;;;;;;;14.30;8.33;;;;;;;17.22;74.23;99837.28;1740395;79;22098;-65
2021/06/26 04:21:30;;;;;;;12.47;8.28;;;;;;;19.03;73.07;99843.78;1755858;78;21614;-65
2021/06/26 04:23:57;;;;;;;8.73;7.80;;;;;;;20.81;72.57;99842.08;1763805;79;21428;-66
2021/06/26 04:26:24;;;;;;;11.43;7.58;;;;;;;22.21;70.73;99836.91;1717836;81;20948;-65
2021/06/26 04:28:51;;;;;;;19.12;8.60;;;;;;;22.73;69.45;99838.61;1694477;82;21473;-65
2021/06/26 04:31:18;;;;;;;11.10;7.33;;;;;;;23.49;69.98;99829.45;1732753;80;20974;-66
2021/06/26 04:33:44;;;;;;;;;;;;;;;24.63;69.08;99824.93;1702120;82;20999;-66
2021/06/26 04:36:13;;;;;;;;;;;;;;;25.70;68.35;99819.81;1757174;79;20126;-66
2021/06/26 04:38:39;;;;;;;9.28;6.20;;;;;;;26.62;67.16;99816.33;1756411;79;20136;-66
2021/06/26 04:41:05;;;;;;;6.50;5.60;;;;;;;27.41;67.26;99818.40;1749329;79;21134;-66
2021/06/26 04:43:32;;;;;;;42.08;8.05;;;;;;;28.17;66.05;99815.21;1756926;79;20939;-66
2021/06/26 04:45:59;;;;;;;33.80;8.05;;;;;;;28.72;65.73;99808.55;1746446;79;21603;-66
2021/06/26 04:48:29;;;;;;;21.65;6.85;;;;;;;29.20;64.44;99804.88;1756353;79;21781;-66
2021/06/26 04:50:55;;;;;;;7.70;5.25;;;;;;;29.64;63.70;99810.59;1745034;79;20923;-66
2021/06/26 04:53:22;;;;;;;10.95;6.00;;;;;;;30.20;63.15;99812.97;1748330;79;22002;-64
2021/06/26 04:55:54;;;;;;;97.53;12.55;;;;;;;30.67;62.32;99810.00;1742746;79;20966;-65
2021/06/26 04:58:22;;;;;;;13.30;6.33;;;;;;;31.02;61.60;99805.92;1745204;79;20919;-65
2021/06/26 05:00:51;;;;;;;41.60;8.15;;;;;;;31.23;60.27;99808.47;1746817;79;20924;-65
2021/06/26 05:03:19;;;;;;;83.60;9.93;;;;;;;31.28;59.00;99801.91;1745815;79;20946;-65
2021/06/26 05:05:47;;;;;;;87.55;11.45;;;;;;;31.19;57.94;99799.10;1712873;82;21270;-65
2021/06/26 05:08:15;;;;;;;122.70;22.58;;;;;;;31.38;57.71;99809.13;1728893;80;21890;-64
2021/06/26 05:10:42;;;;;;;39.88;7.90;;;;;;;31.39;57.02;99804.55;1688750;82;21392;-65
2021/06/26 05:13:09;;;;;;;64.58;11.75;;;;;;;31.82;56.52;99809.56;1728147;80;20979;-65
2021/06/26 05:15:36;;;;;;;158.97;31.30;;;;;;;32.16;55.48;99812.55;1742130;79;20996;-65
2021/06/26 05:18:04;;;;;;;306.38;60.23;;;;;;;32.21;54.21;99807.84;1754644;79;21207;-65
2021/06/26 05:20:30;;;;;;;47.17;11.65;;;;;;;31.84;53.01;99809.64;1740246;79;20985;-65
2021/06/26 05:22:57;;;;;;;300.98;49.03;;;;;;;31.85;53.26;99815.37;1740355;79;21628;-65
2021/06/26 05:25:24;;;;;;;235.00;40.58;;;;;;;32.04;52.21;99802.06;1754571;79;21576;-66
2021/06/26 05:27:51;;;;;;;79.87;23.35;;;;;;;32.00;51.69;99808.94;1734984;79;20946;-66
2021/06/26 05:30:18;;;;;;;269.27;34.25;;;;;;;32.07;51.31;99809.77;1758255;79;21057;-65
2021/06/26 05:32:44;;;;;;;122.47;30.17;;;;;;;32.26;50.45;99816.97;1729196;79;20971;-68
2021/06/26 05:35:11;;;;;;;127.38;23.05;;;;;;;31.80;48.68;99812.45;1734201;80;21399;-65
2021/06/26 05:37:38;;;;;;;45.20;12.90;;;;;;;31.05;47.94;99816.30;1749831;79;20959;-65
2021/06/26 05:40:06;;;;;;;87.05;18.32;;;;;;;30.79;47.76;99815.15;1756473;79;20968;-65
2021/06/26 05:42:33;;;;;;;228.58;38.60;;;;;;;30.45;47.71;99818.22;1745474;79;21088;-65
2021/06/26 05:44:59;;;;;;;89.00;14.47;;;;;;;30.43;46.75;99813.53;1740065;79;21054;-65
2021/06/26 05:47:26;;;;;;;165.85;34.13;;;;;;;29.90;46.06;99818.55;1733084;80;20976;-66
2021/06/26 05:49:53;;;;;;;219.85;41.45;;;;;;;29.75;46.50;99809.76;1757719;79;20868;-65
2021/06/26 05:52:20;;;;;;;122.53;24.82;;;;;;;29.94;46.33;99814.46;1743379;80;20945;-66
2021/06/26 05:54:47;;;;;;;137.40;24.43;;;;;;;29.34;45.62;99811.73;1688950;81;21105;-66
2021/06/26 05:57:14;;;;;;;59.13;11.73;;;;;;;29.33;45.33;99814.12;1707696;82;20887;-65
2021/06/26 05:59:41;;;;;;;290.65;47.23;;;;;;;28.82;42.67;99811.44;1685195;82;20941;-65
2021/06/26 06:02:15;;;;;;;109.97;19.00;;;;;;;27.71;44.22;99827.38;1729369;81;21508;-65
2021/06/26 06:04:41;;;;;;;192.37;33.35;;;;;;;27.25;44.16;99823.88;1755935;79;21031;-65
2021/06/26 06:07:11;;;;;;;218.50;36.45;;;;;;;27.27;44.80;99820.00;1748168;79;20962;-65
2021/06/26 06:09:38;;;;;;;70.22;15.20;;;;;;;26.70;44.32;99828.34;1761468;79;20915;-65
2021/06/26 06:12:06;;;;;;;180.27;30.20;;;;;;;25.87;43.91;99824.18;1749534;79;20953;-65
2021/06/26 06:14:32;;;;;;;13.70;4.53;;;;;;;24.83;44.21;99827.34;1747914;79;20943;-65
2021/06/26 06:16:58;;;;;;;;;;;;;;;23.82;43.93;99831.42;1749436;79;20920;-65
2021/06/26 06:19:25;;;;;;;190.03;31.57;;;;;;;23.03;45.50;99834.00;1755581;79;20718;-65
2021/06/26 06:21:51;;;;;;;;;;;;;;;23.70;46.16;99834.48;1756971;79;20901;-65
2021/06/26 06:24:18;;;;;;;78.70;16.05;;;;;;;24.76;45.30;99833.34;1729089;79;20117;-65
2021/06/26 06:26:45;;;;;;;9.23;4.10;;;;;;;25.58;45.05;99828.17;1737700;79;20916;-65
2021/06/26 06:29:11;;;;;;;142.13;23.52;;;;;;;25.53;43.43;99838.53;1767293;78;21615;-65
2021/06/26 06:31:38;;;;;;;12.18;3.35;;;;;;;25.31;44.99;99833.83;1761451;78;22328;-65
2021/06/26 06:34:05;;;;;;;245.93;28.27;;;;;;;25.26;43.78;99834.31;1764840;78;21501;-65
2021/06/26 06:36:31;;;;;;;371.90;42.78;;;;;;;24.74;44.13;99836.66;1769114;78;20952;-65
2021/06/26 06:38:58;;;;;;;147.57;16.25;;;;;;;25.18;45.44;99832.48;1771238;78;21470;-66
2021/06/26 06:41:25;;;;;;;36.17;6.12;;;;;;;26.14;45.40;99830.17;1764470;78;20982;-65
2021/06/26 06:43:52;;;;;;;5.53;2.58;;;;;;;26.93;44.55;99833.24;1771384;78;21239;-66
2021/06/26 06:46:19;;;;;;;10.30;3.10;;;;;;;25.72;39.92;99832.02;1767636;78;20889;-66
2021/06/26 06:48:45;;;;;;;69.37;8.00;;;;;;;24.53;43.21;99850.90;1763122;78;20931;-65
2021/06/26 06:51:12;;;;;;;13.30;3.42;;;;;;;24.42;43.71;99845.80;1762342;78;20944;-65
2021/06/26 06:53:39;;;;;;;49.73;6.50;;;;;;;24.74;43.79;99848.67;1751673;80;21466;-64
2021/06/26 06:56:05;;;;;;;28.60;5.55;;;;;;;25.03;44.35;99847.42;1760091;78;21458;-65
2021/06/26 06:58:32;;;;;;;14.58;3.55;;;;;;;25.66;43.62;99839.38;1773261;78;20899;-65
2021/06/26 07:00:59;;;;;;;213.12;37.33;;;;;;;25.65;42.42;99837.22;1768205;78;20930;-66
2021/06/26 07:03:26;;;;;;;7.62;3.60;;;;;;;26.03;43.48;99832.19;1765929;78;20919;-66
2021/06/26 07:05:53;;;;;;;5.87;2.30;;;;;;;26.11;40.46;99839.38;1766854;78;20938;-65
2021/06/26 07:08:20;;;;;;;39.08;5.75;;;;;;;25.09;40.92;99849.44;1765526;78;21110;-66
2021/06/26 07:10:47;;;;;;;83.03;14.93;;;;;;;25.15;42.31;99841.30;1754297;79;20858;-65
2021/06/26 07:13:13;;;;;;;67.55;10.63;;;;;;;25.59;42.63;99840.53;1737057;80;20903;-64
2021/06/26 07:15:44;;;;;;;180.55;26.93;;;;;;;26.32;42.62;99847.67;1752784;80;21866;-67
2021/06/26 07:18:12;;;;;;;128.32;24.32;;;;;;;26.82;42.95;99841.67;1750330;79;20939;-65
2021/06/26 07:20:40;;;;;;;192.25;24.85;;;;;;;26.96;42.62;99855.66;1742037;80;21727;-64
2021/06/26 07:23:07;;;;;;;84.47;14.95;;;;;;;26.48;42.04;99854.83;1767792;78;21434;-65
2021/06/26 07:25:35;;;;;;;166.57;27.73;;;;;;;25.98;42.05;99847.91;1748479;80;20940;-65
2021/06/26 07:28:02;;;;;;;307.52;48.85;;;;;;;26.13;42.28;99846.70;1751727;80;21498;-66
2021/06/26 07:30:28;;;;;;;106.47;22.60;;;;;;;26.54;42.44;99836.77;1741642;80;21013;-65
2021/06/26 07:32:55;;;;;;;47.48;8.30;;;;;;;27.03;42.06;99838.88;1750544;80;21144;-66
2021/06/26 07:35:22;;;;;;;6.42;3.00;;;;;;;26.50;41.28;99846.16;1770679;78;20884;-65
2021/06/26 07:37:48;;;;;;;;;;;;;;;25.44;40.48;99848.37;1768629;78;21596;-65
2021/06/26 07:40:15;;;;;;;;;;;;;;;23.58;40.79;99859.17;1769059;79;20101;-66
2021/06/26 07:42:43;;;;;;;9.93;3.10;;;;;;;22.27;42.77;99853.65;1768455;78;20141;-65
2021/06/26 07:45:11;;;;;;;4.00;3.20;;;;;;;21.53;43.29;99851.59;1770207;78;22572;-66
2021/06/26 07:47:38;;;;;;;20.45;5.08;;;;;;;21.02;43.11;99854.79;1764224;78;20911;-65
2021/06/26 07:50:08;;;;;;;181.67;29.63;;;;;;;20.67;43.73;99856.09;1761237;78;20902;-66
2021/06/26 07:52:34;;;;;;;168.45;24.72;;;;;;;20.99;44.46;99853.73;1765801;79;21490;-66
2021/06/26 07:55:01;;;;;;;319.98;47.40;;;;;;;21.59;44.72;99849.24;1758930;79;20983;-65
2021/06/26 07:57:28;;;;;;;44.73;8.55;;;;;;;21.70;44.44;99846.07;1716608;80;21114;-65
2021/06/26 07:59:54;;;;;;;76.20;12.78;;;;;;;21.45;44.45;99857.60;1704330;81;21453;-65
2021/06/26 08:02:21;;;;;;;146.80;24.32;;;;;;;21.15;44.88;99851.41;1714677;81;20935;-65
2021/06/26 08:04:48;;;;;;;164.97;26.25;;;;;;;20.97;45.17;99853.02;1715086;81;21456;-66
2021/06/26 08:07:15;;;;;;;40.60;7.85;;;;;;;20.80;45.32;99849.20;1704119;82;26602;-65
2021/06/26 08:09:41;;;;;;;42.25;9.43;;;;;;;20.60;45.66;99848.80;1710377;82;21200;-64
2021/06/26 08:12:14;;;;;;;31.68;6.10;;;;;;;20.65;46.10;99846.09;1700561;81;20994;-65
2021/06/26 08:14:38;;;;;;;62.80;11.08;;;;;;;20.52;46.16;99845.44;1771444;78;20934;-65
2021/06/26 08:17:05;;;;;;;155.10;18.40;;;;;;;20.59;46.52;99846.63;1745072;79;21522;-66
2021/06/26 08:19:32;;;;;;;18.75;5.28;;;;;;;20.82;46.98;99855.23;1714801;80;20963;-66
2021/06/26 08:21:59;;;;;;;13.65;4.72;;;;;;;21.26;47.09;99854.89;1721184;80;21315;-64
2021/06/26 08:24:25;;;;;;;;;;;;;;;21.61;47.11;99848.59;1706014;81;21009;-64
2021/06/26 08:26:52;;;;;;;244.72;31.25;;;;;;;21.93;47.27;99840.81;1708752;81;20119;-65
2021/06/26 08:29:18;;;;;;;226.60;25.00;;;;;;;22.48;47.24;99845.44;1699308;82;20955;-69
2021/06/26 08:31:45;;;;;;;39.35;6.85;;;;;;;22.53;46.59;99853.33;1696358;82;21468;-64
2021/06/26 08:34:12;;;;;;;62.40;8.45;;;;;;;22.13;46.30;99861.06;1763854;78;21070;-65
2021/06/26 08:36:38;;;;;;;24.20;4.83;;;;;;;21.53;46.48;99861.73;1770930;78;20982;-65
2021/06/26 08:39:21;;;;;;;45.25;6.45;;;;;;;21.17;46.89;99862.73;1765945;78;20977;-65
2021/06/26 08:41:49;;;;;;;9.55;3.65;;;;;;;20.96;47.14;99865.46;1743758;79;20948;-64
2021/06/26 08:44:17;;;;;;;26.55;5.25;;;;;;;20.85;47.53;99868.72;1758156;78;20966;-64
2021/06/26 08:46:49;;;;;;;6.55;4.05;;;;;;;20.94;47.70;99872.72;1764453;78;21940;-64
2021/06/26 08:49:19;;;;;;;7.70;4.40;;;;;;;21.08;47.73;99875.48;1768216;78;20935;-64
2021/06/26 08:51:49;;;;;;;10.90;4.05;;;;;;;21.12;47.75;99875.58;1774618;78;20997;-65
2021/06/26 08:54:22;;;;;;;11.33;3.98;;;;;;;21.30;47.94;99874.90;1749800;80;21640;-66
2021/06/26 08:56:51;;;;;;;8.60;4.00;;;;;;;21.53;48.30;99875.02;1725240;80;21500;-64
2021/06/26 08:59:21;;;;;;;8.43;4.33;;;;;;;21.89;48.39;99874.80;1697616;81;21479;-64
2021/06/26 09:01:48;;;;;;;27.87;5.35;;;;;;;22.12;48.09;99872.69;1721517;81;20980;-64
2021/06/26 09:04:18;;;;;;;12.80;4.17;;;;;;;22.26;48.06;99871.90;1707970;81;20919;-64
2021/06/26 09:06:57;;;;;;;6.30;3.50;;;;;;;22.25;47.99;99879.54;1709735;81;20931;-64
2021/06/26 09:09:36;;;;;;;16.65;3.83;;;;;;;22.17;47.30;99882.05;1711623;81;21561;-64
2021/06/26 09:12:10;;;;;;;7.47;3.42;;;;;;;22.02;47.82;99874.52;1712588;80;21168;-65
2021/06/26 09:14:39;;;;;;;4.70;2.95;;;;;;;22.00;47.27;99871.16;1693349;82;20940;-65
2021/06/26 09:17:07;;;;;;;8.05;3.90;;;;;;;21.85;47.21;99873.91;1707436;82;20969;-64
2021/06/26 09:19:35;;;;;;;14.68;3.60;;;;;;;22.09;48.06;99878.27;1711873;81;21031;-65
2021/06/26 09:22:10;;;;;;;8.63;4.03;;;;;;;22.44;47.73;99874.17;1701175;82;20991;-65
2021/06/26 09:24:43;;;;;;;7.90;3.55;;;;;;;23.14;48.18;99877.73;1718934;80;21133;-65
2021/06/26 09:27:12;;;;;;;6.75;3.47;;;;;;;24.02;48.04;99871.23;1716451;80;20992;-64
2021/06/26 09:29:56;;;;;;;12.33;3.05;;;;;;;24.63;47.40;99875.66;1743109;80;21516;-66
2021/06/26 09:32:25;;;;;;;40.25;5.67;;;;;;;24.63;46.59;99870.31;1753371;80;21464;-65
2021/06/26 09:34:53;;;;;;;7.85;2.90;;;;;;;24.98;46.87;99872.45;1723825;80;20913;-65
2021/06/26 09:37:29;;;;;;;11.30;3.40;;;;;;;25.17;45.97;99874.88;1778663;78;21237;-65
2021/06/26 09:39:59;;;;;;;9.13;3.35;;;;;;;25.24;45.68;99868.41;1772303;78;20924;-64
2021/06/26 09:42:36;;;;;;;7.53;2.55;;;;;;;25.58;45.66;99864.27;1771724;78;20935;-65
2021/06/26 09:45:09;;;;;;;9.78;2.77;;;;;;;25.81;43.99;99862.27;1766595;78;20945;-65
2021/06/26 09:47:42;;;;;;;3.70;2.70;;;;;;;25.59;44.58;99861.09;1768420;78;21386;-65
2021/06/26 09:50:24;;;;;;;7.37;2.40;;;;;;;25.60;44.68;99859.60;1760386;79;21526;-64
2021/06/26 09:53:00;;;;;;;6.95;2.70;;;;;;;25.75;43.28;99862.94;1768685;78;20961;-65
2021/06/26 09:55:37;;;;;;;4.83;2.70;;;;;;;25.15;42.64;99864.87;1760510;79;20931;-65
2021/06/26 09:58:17;;;;;;;2.83;2.25;;;;;;;24.65;42.76;99862.99;1766698;79;21562;-64
2021/06/26 10:00:46;;;;;;;7.58;2.90;;;;;;;24.24;41.30;99865.39;1773936;78;21099;-66
2021/06/26 10:03:18;;;;;;;4.55;2.75;;;;;;;23.14;42.25;99868.42;1772639;78;22114;-65
2021/06/26 10:05:47;;;;;;;4.15;2.70;;;;;;;23.09;42.79;99876.01;1760430;79;20892;-65
2021/06/26 10:08:16;;;;;;;7.08;3.47;;;;;;;22.76;42.57;99880.90;1751677;80;20976;-64
2021/06/26 10:10:43;;;;;;;4.75;2.62;;;;;;;22.96;43.10;99871.86;1726756;80;20930;-65
2021/06/26 10:13:14;;;;;;;6.28;2.87;;;;;;;23.05;42.11;99865.30;1772537;78;20935;-67
2021/06/26 10:15:42;;;;;;;3.80;2.83;;;;;;;22.93;42.88;99868.12;1746093;78;21172;-64
2021/06/26 10:18:12;;;;;;;9.00;2.65;;;;;;;22.19;41.72;99866.83;1720069;80;21459;-67
2021/06/26 10:20:39;;;;;;;8.65;3.22;;;;;;;21.85;42.57;99864.61;1696775;80;20907;-65
2021/06/26 10:23:07;;;;;;;4.75;2.85;;;;;;;21.88;42.86;99870.97;1702366;81;20918;-62
2021/06/26 10:25:37;;;;;;;3.40;2.60;;;;;;;21.85;42.93;99868.59;1711893;81;22123;-66
2021/06/26 10:28:12;;;;;;;4.85;2.83;;;;;;;22.09;43.06;99874.27;1687278;81;21996;-63
2021/06/26 10:30:41;;;;;;;8.33;2.87;;;;;;;22.59;43.42;99867.05;1716083;81;20926;-65
2021/06/26 10:33:10;;;;;;;8.65;3.12;;;;;;;22.87;43.10;99866.56;1720880;81;21434;-65
2021/06/26 10:35:43;;;;;;;4.90;3.00;;;;;;;23.06;42.90;99870.98;1695212;81;21151;-65
2021/06/26 10:38:12;;;;;;;15.53;3.15;;;;;;;22.94;42.30;99857.84;1702507;82;20933;-64
2021/06/26 10:40:47;;;;;;;5.87;2.45;;;;;;;22.79;42.61;99868.62;1682813;82;21072;-66
2021/06/26 10:43:27;;;;;;;4.55;2.33;;;;;;;22.31;41.67;99866.98;1703720;81;21523;-65
2021/06/26 10:46:13;;;;;;;5.22;3.05;;;;;;;21.90;42.15;99868.98;1713131;81;20958;-66
2021/06/26 10:48:44;;;;;;;9.83;3.00;;;;;;;22.00;43.15;99863.17;1725033;80;20951;-64
2021/06/26 10:51:11;;;;;;;6.72;3.05;;;;;;;22.67;43.34;99865.82;1724950;80;20944;-66
2021/06/26 10:53:41;;;;;;;17.98;3.42;;;;;;;22.95;43.04;99865.33;1724110;80;21134;-66
2021/06/26 10:56:13;;;;;;;22.75;3.55;;;;;;;22.91;42.87;99872.79;1718928;79;20915;-64
2021/06/26 10:58:44;;;;;;;3.72;2.27;;;;;;;22.79;42.96;99875.28;1712417;80;20928;-65
2021/06/26 11:01:18;;;;;;;5.03;2.90;;;;;;;22.67;42.68;99873.80;1712321;80;20870;-66
2021/06/26 11:04:11;;;;;;;4.92;3.12;;;;;;;22.50;42.97;99881.56;1714952;80;21052;-65
2021/06/26 11:06:42;;;;;;;8.00;2.85;;;;;;;22.42;43.16;99881.45;1727970;80;21927;-65
2021/06/26 11:09:12;;;;;;;3.90;2.45;;;;;;;22.59;43.22;99879.85;1761311;78;20913;-66
2021/06/26 11:11:50;;;;;;;7.42;2.92;;;;;;;22.83;43.21;99880.67;1760016;78;20907;-64
2021/06/26 11:14:24;;;;;;;6.85;3.20;;;;;;;23.03;43.25;99884.60;1764013;78;21437;-64
2021/06/26 11:16:54;;;;;;;5.28;2.75;;;;;;;23.17;43.35;99878.77;1754443;79;20940;-64
2021/06/26 11:19:25;;;;;;;7.22;3.02;;;;;;;23.41;43.28;99871.04;1754945;80;21969;-64
2021/06/26 11:21:54;;;;;;;15.20;3.33;;;;;;;23.73;43.33;99871.02;1754650;80;20906;-65
2021/06/26 11:24:35;;;;;;;116.57;10.10;;;;;;;24.04;43.44;99865.27;1756277;80;20939;-65
2021/06/26 11:27:03;;;;;;;4.33;2.60;;;;;;;24.31;43.32;99866.45;1747552;79;20935;-65
2021/06/26 11:29:38;;;;;;;10.28;3.27;;;;;;;24.40;42.92;99870.50;1747712;80;20946;-65
2021/06/26 11:32:19;;;;;;;10.10;2.62;;;;;;;24.49;43.15;99873.58;1749880;80;21057;-65
2021/06/26 11:35:02;;;;;;;36.25;4.87;;;;;;;24.74;42.70;99871.36;1749836;80;20931;-64